createdAt,value
2019-01-06T00:00:59.086Z,7.77
2019-01-06T00:03:46.202Z,8.27
2019-01-06T00:06:33.329Z,7.63
2019-01-06T00:09:20.735Z,7.70
2019-01-06T00:12:07.601Z,7.10
2019-01-06T00:14:54.925Z,7.70
2019-01-06T00:17:42.047Z,8.30
2019-01-06T00:20:29.042Z,8.37
2019-01-06T00:23:15.824Z,6.97
2019-01-06T00:26:02.617Z,7.40
2019-01-06T00:28:49.407Z,7.70
2019-01-06T00:31:36.490Z,7.70
2019-01-06T00:34:23.530Z,7.93
2019-01-06T00:37:10.302Z,8.17
2019-01-06T00:39:57.094Z,8.37
2019-01-06T00:42:43.870Z,8.40
2019-01-06T00:45:30.663Z,8.80
2019-01-06T00:48:18.121Z,7.67
2019-01-06T00:51:04.928Z,8.30
2019-01-06T00:53:51.695Z,7.40
2019-01-06T00:56:38.854Z,7.50
2019-01-06T00:59:26.046Z,7.57
2019-01-06T01:02:13.392Z,7.20
2019-01-06T01:05:00.435Z,7.47
2019-01-06T01:07:47.473Z,7.90
2019-01-06T01:10:34.582Z,8.60
2019-01-06T01:13:21.619Z,8.87
2019-01-06T01:16:08.630Z,9.50
2019-01-06T01:18:55.657Z,9.43
2019-01-06T01:21:42.432Z,9.30
2019-01-06T01:24:29.231Z,9.60
2019-01-06T01:27:16.002Z,9.27
2019-01-06T01:30:03.110Z,9.90
2019-01-06T01:32:44.983Z,10.10
2019-01-06T01:35:31.780Z,10.30
2019-01-06T01:38:19.131Z,10.77
2019-01-06T01:41:05.908Z,10.03
2019-01-06T01:43:52.742Z,9.17
2019-01-06T01:46:39.756Z,9.20
2019-01-06T01:49:34.129Z,9.97
2019-01-06T01:52:20.935Z,8.57
2019-01-06T01:55:08.069Z,9.90
2019-01-06T01:57:55.094Z,8.73
2019-01-06T02:00:42.241Z,8.73
2019-01-06T02:03:29.319Z,8.73
2019-01-06T02:06:16.691Z,7.80
2019-01-06T02:09:03.779Z,7.80
2019-01-06T02:11:51.152Z,8.13
2019-01-06T02:14:37.927Z,8.53
2019-01-06T02:17:25.055Z,8.90
2019-01-06T02:20:12.076Z,8.43
2019-01-06T02:22:59.094Z,8.00
2019-01-06T02:25:46.157Z,8.37
2019-01-06T02:28:33.578Z,8.17
2019-01-06T02:31:20.726Z,8.83
2019-01-06T02:34:07.771Z,8.60
2019-01-06T02:36:55.074Z,9.33
2019-01-06T02:39:41.850Z,8.30
2019-01-06T02:42:28.639Z,7.93
2019-01-06T02:45:15.410Z,8.83
2019-01-06T02:48:02.525Z,8.07
2019-01-06T02:50:49.417Z,7.97
2019-01-06T02:53:36.482Z,8.30
2019-01-06T02:56:23.540Z,8.30
2019-01-06T02:59:10.321Z,9.40
2019-01-06T03:01:57.370Z,9.50
2019-01-06T03:04:44.417Z,9.10
2019-01-06T03:07:31.443Z,8.43
2019-01-06T03:10:18.504Z,9.60
2019-01-06T03:13:02.553Z,8.53
2019-01-06T03:15:49.614Z,9.53
2019-01-06T03:18:26.519Z,10.33
2019-01-06T03:21:13.593Z,10.40
2019-01-06T03:24:00.374Z,10.73
2019-01-06T03:26:42.994Z,9.97
2019-01-06T03:29:29.758Z,10.50
2019-01-06T03:32:16.549Z,11.80
2019-01-06T03:35:03.571Z,11.30
2019-01-06T03:37:50.662Z,11.50
2019-01-06T03:40:37.806Z,12.37
2019-01-06T03:43:25.228Z,12.40
2019-01-06T03:46:12.351Z,11.20
2019-01-06T03:48:59.423Z,12.43
2019-01-06T03:51:38.557Z,12.50
2019-01-06T03:54:25.698Z,11.97
2019-01-06T03:57:12.491Z,13.23
2019-01-06T04:00:00.935Z,12.47
2019-01-06T04:02:48.313Z,12.40
2019-01-06T04:05:35.325Z,12.50
2019-01-06T04:08:22.383Z,11.83
2019-01-06T04:11:15.103Z,12.67
2019-01-06T04:13:53.845Z,12.00
2019-01-06T04:16:41.282Z,10.93
2019-01-06T04:19:28.563Z,12.27
2019-01-06T04:22:15.382Z,11.87
2019-01-06T04:25:02.172Z,11.20
2019-01-06T04:27:45.983Z,11.10
2019-01-06T04:30:33.007Z,11.80
2019-01-06T04:33:19.824Z,11.27
2019-01-06T04:36:06.589Z,11.27
2019-01-06T04:38:53.378Z,11.17
2019-01-06T04:41:40.385Z,11.33
2019-01-06T04:44:27.457Z,10.43
2019-01-06T04:47:14.262Z,10.80
2019-01-06T04:52:49.275Z,10.03
2019-01-06T04:55:36.350Z,10.73
2019-01-06T04:58:23.652Z,11.03
2019-01-06T05:01:10.691Z,10.17
2019-01-06T05:03:57.471Z,10.13
2019-01-06T05:06:44.598Z,11.27
2019-01-06T05:09:31.978Z,9.30
2019-01-06T05:12:19.072Z,10.03
2019-01-06T05:15:06.420Z,10.63
2019-01-06T05:17:53.507Z,10.27
2019-01-06T05:20:40.270Z,10.90
2019-01-06T05:23:27.311Z,10.17
2019-01-06T05:26:14.344Z,10.27
2019-01-06T05:29:01.629Z,10.90
2019-01-06T05:31:48.676Z,10.70
2019-01-06T05:34:36.038Z,11.00
2019-01-06T05:37:23.358Z,11.20
2019-01-06T05:40:10.128Z,12.90
2019-01-06T05:45:46.818Z,12.63
2019-01-06T05:48:34.198Z,12.60
2019-01-06T05:51:21.276Z,10.67
2019-01-06T05:54:08.143Z,12.60
2019-01-06T05:56:54.905Z,11.77
2019-01-06T05:59:42.015Z,11.93
2019-01-06T06:02:28.783Z,11.73
2019-01-06T06:05:15.822Z,12.60
2019-01-06T06:08:03.208Z,11.73
2019-01-06T06:10:50.215Z,11.30
2019-01-06T06:13:37.301Z,11.53
2019-01-06T06:16:24.603Z,12.00
2019-01-06T06:19:11.642Z,12.03
2019-01-06T06:21:58.661Z,12.70
2019-01-06T06:24:45.764Z,12.23
2019-01-06T06:27:32.544Z,11.83
2019-01-06T06:30:19.598Z,12.50
2019-01-06T06:33:06.644Z,11.80
2019-01-06T06:35:53.716Z,11.73
2019-01-06T06:38:40.847Z,11.97
2019-01-06T06:41:27.643Z,12.13
2019-01-06T06:44:14.409Z,12.03
2019-01-06T06:47:01.193Z,12.30
2019-01-06T06:49:48.454Z,11.80
2019-01-06T06:52:35.475Z,12.20
2019-01-06T06:55:22.513Z,12.47
2019-01-06T06:58:28.371Z,11.80
2019-01-06T07:01:17.838Z,10.60
2019-01-06T07:04:04.718Z,11.60
2019-01-06T07:06:51.513Z,10.83
2019-01-06T07:09:38.283Z,13.03
2019-01-06T07:12:22.221Z,11.17
2019-01-06T07:15:09.015Z,11.87
2019-01-06T07:18:14.925Z,11.10
2019-01-06T07:21:02.802Z,11.50
2019-01-06T07:23:50.149Z,12.03
2019-01-06T07:26:37.234Z,10.33
2019-01-06T07:29:24.051Z,11.33
2019-01-06T07:32:30.188Z,11.10
2019-01-06T07:35:17.486Z,10.10
2019-01-06T07:38:04.619Z,11.70
2019-01-06T07:40:51.399Z,10.63
2019-01-06T07:43:38.561Z,11.47
2019-01-06T07:46:25.882Z,11.67
2019-01-06T07:49:12.688Z,11.40
2019-01-06T07:51:59.561Z,11.63
2019-01-06T07:54:46.796Z,11.43
2019-01-06T07:57:33.925Z,10.90
2019-01-06T08:00:20.967Z,10.67
2019-01-06T08:03:08.038Z,10.90
2019-01-06T08:05:54.834Z,9.80
2019-01-06T08:08:41.627Z,10.00
2019-01-06T08:11:28.742Z,10.83
2019-01-06T08:14:15.502Z,9.83
2019-01-06T08:17:02.322Z,9.10
2019-01-06T08:19:49.404Z,8.90
2019-01-06T08:22:35.122Z,9.20
2019-01-06T08:25:22.422Z,9.07
2019-01-06T08:28:09.203Z,8.97
2019-01-06T08:30:55.970Z,9.07
2019-01-06T08:33:43.003Z,9.80
2019-01-06T08:36:29.829Z,8.90
2019-01-06T08:39:16.872Z,9.80
2019-01-06T08:41:57.853Z,10.50
2019-01-06T08:44:45.262Z,10.20
2019-01-06T08:47:32.349Z,11.07
2019-01-06T08:50:21.098Z,10.40
2019-01-06T08:53:08.474Z,10.57
2019-01-06T08:55:55.395Z,10.47
2019-01-06T08:58:42.991Z,11.47
2019-01-06T09:01:30.394Z,11.30
2019-01-06T09:04:17.440Z,11.10
2019-01-06T09:07:05.313Z,11.53
2019-01-06T09:09:52.118Z,11.70
2019-01-06T09:12:42.963Z,11.23
2019-01-06T09:15:27.694Z,12.50
2019-01-06T09:18:14.534Z,10.93
2019-01-06T09:21:01.306Z,10.93
2019-01-06T09:23:48.111Z,11.70
2019-01-06T09:26:34.910Z,11.30
2019-01-06T09:29:22.583Z,11.27
2019-01-06T09:32:09.372Z,12.40
2019-01-06T09:34:56.671Z,12.70
2019-01-06T09:37:44.078Z,11.77
2019-01-06T09:40:31.784Z,12.70
2019-01-06T09:43:18.698Z,11.80
2019-01-06T09:46:05.858Z,12.67
2019-01-06T09:48:51.814Z,13.33
2019-01-06T09:51:37.617Z,13.10
2019-01-06T09:54:39.521Z,12.87
2019-01-06T09:57:27.181Z,12.50
2019-01-06T10:00:17.572Z,12.37
2019-01-06T10:03:01.007Z,12.67
2019-01-06T10:05:57.139Z,12.37
2019-01-06T10:08:44.263Z,12.00
2019-01-06T10:11:29.949Z,11.87
2019-01-06T10:14:32.118Z,11.83
2019-01-06T10:17:18.303Z,12.30
2019-01-06T10:20:04.897Z,12.30
2019-01-06T10:22:52.537Z,11.03
2019-01-06T10:25:45.697Z,11.40
2019-01-06T10:28:31.704Z,11.23
2019-01-06T10:31:28.429Z,10.77
2019-01-06T10:34:13.950Z,10.57
2019-01-06T10:37:01.350Z,11.33
2019-01-06T10:39:57.263Z,11.00
2019-01-06T10:42:50.913Z,9.30
2019-01-06T10:45:38.815Z,10.13
2019-01-06T10:48:19.762Z,9.57
2019-01-06T10:51:20.573Z,9.37
2019-01-06T10:54:07.382Z,9.10
2019-01-06T10:57:03.137Z,9.77
2019-01-06T10:59:50.553Z,9.33
2019-01-06T11:02:35.954Z,9.10
2019-01-06T11:05:21.960Z,8.33
2019-01-06T11:08:14.571Z,8.80
2019-01-06T11:11:00.021Z,7.90
2019-01-06T11:13:46.549Z,7.80
2019-01-06T11:16:32.544Z,7.87
2019-01-06T11:19:28.558Z,7.80
2019-01-06T11:22:11.685Z,8.50
2019-01-06T11:25:01.981Z,8.80
2019-01-06T11:27:53.495Z,8.67
2019-01-06T11:30:40.721Z,8.83
2019-01-06T11:33:31.214Z,9.13
2019-01-06T11:36:24.890Z,8.97
2019-01-06T11:39:10.358Z,8.57
2019-01-06T11:41:49.791Z,9.30
2019-01-06T11:44:37.398Z,9.60
2019-01-06T11:47:23.434Z,9.40
2019-01-06T11:50:13.395Z,10.57
2019-01-06T11:52:59.061Z,9.57
2019-01-06T11:55:55.257Z,9.40
2019-01-06T11:58:54.945Z,10.00
2019-01-06T12:01:42.102Z,10.90
2019-01-06T12:04:27.796Z,10.87
2019-01-06T12:07:21.002Z,11.83
2019-01-06T12:10:11.146Z,11.53
2019-01-06T12:13:10.455Z,15.80
2019-01-06T12:15:56.285Z,18.90
2019-01-06T12:18:51.084Z,19.07
2019-01-06T12:21:48.082Z,16.30
2019-01-06T12:24:33.908Z,14.00
2019-01-06T12:27:20.028Z,15.03
2019-01-06T12:30:06.826Z,15.30
2019-01-06T12:33:00.018Z,13.30
2019-01-06T12:35:44.422Z,16.10
2019-01-06T12:38:29.854Z,16.80
2019-01-06T12:41:15.973Z,16.47
2019-01-06T12:44:21.322Z,14.47
2019-01-06T12:47:16.609Z,13.87
2019-01-06T12:49:57.341Z,12.77
2019-01-06T12:53:02.405Z,13.20
2019-01-06T12:55:52.294Z,13.53
2019-01-06T12:58:36.421Z,13.97
2019-01-06T13:01:22.768Z,13.60
2019-01-06T13:04:19.346Z,14.60
2019-01-06T13:07:24.760Z,14.37
2019-01-06T13:10:11.821Z,13.27
2019-01-06T13:12:57.401Z,13.73
2019-01-06T13:16:02.362Z,13.67
2019-01-06T13:18:52.136Z,13.60
2019-01-06T13:21:46.808Z,13.20
2019-01-06T13:24:42.832Z,13.53
2019-01-06T13:27:38.760Z,12.73
2019-01-06T13:30:24.996Z,12.40
2019-01-06T13:33:31.020Z,12.23
2019-01-06T13:36:17.757Z,12.90
2019-01-06T13:39:05.387Z,12.60
2019-01-06T13:42:02.319Z,12.00
2019-01-06T13:44:48.068Z,11.93
2019-01-06T13:47:33.520Z,13.50
2019-01-06T13:50:26.465Z,11.90
2019-01-06T13:53:04.830Z,13.20
2019-01-06T13:55:50.533Z,14.23
2019-01-06T13:58:49.829Z,13.57
2019-01-06T14:01:35.561Z,14.43
2019-01-06T14:04:34.821Z,14.20
2019-01-06T14:07:24.703Z,14.07
2019-01-06T14:10:06.618Z,15.37
2019-01-06T14:12:51.486Z,17.13
2019-01-06T14:15:33.223Z,17.07
2019-01-06T14:18:18.973Z,18.20
2019-01-06T14:21:06.987Z,18.47
2019-01-06T14:23:54.526Z,17.40
2019-01-06T14:26:53.788Z,18.60
2019-01-06T14:29:46.617Z,16.47
2019-01-06T14:32:32.359Z,17.83
2019-01-06T14:35:19.164Z,17.00
2019-01-06T14:38:06.331Z,19.50
2019-01-06T14:41:09.161Z,18.50
2019-01-06T14:43:56.323Z,16.20
2019-01-06T14:46:55.551Z,15.87
2019-01-06T14:49:51.469Z,16.60
2019-01-06T14:52:38.574Z,14.90
2019-01-06T14:55:21.647Z,16.00
2019-01-06T14:58:04.994Z,15.60
2019-01-06T15:00:52.226Z,14.77
2019-01-06T15:03:41.913Z,15.47
2019-01-06T15:06:35.454Z,16.67
2019-01-06T15:09:31.495Z,16.30
2019-01-06T15:12:17.262Z,14.23
2019-01-06T15:15:04.701Z,15.60
2019-01-06T15:17:55.021Z,15.43
2019-01-06T15:20:40.721Z,15.17
2019-01-06T15:23:37.205Z,15.83
2019-01-06T15:26:23.405Z,15.93
2019-01-06T15:29:10.800Z,16.60
2019-01-06T15:31:49.843Z,17.10
2019-01-06T15:34:30.703Z,15.77
2019-01-06T15:37:16.344Z,16.43
2019-01-06T15:40:02.814Z,16.47
2019-01-06T15:42:48.682Z,15.77
2019-01-06T15:45:34.919Z,16.20
2019-01-06T15:48:31.341Z,17.80
2019-01-06T15:51:18.759Z,17.10
2019-01-06T15:54:02.115Z,15.50
2019-01-06T15:56:51.801Z,17.50
2019-01-06T15:59:41.770Z,17.87
2019-01-06T16:02:28.942Z,17.37
2019-01-06T16:05:14.999Z,18.10
2019-01-06T16:08:13.881Z,16.83
2019-01-06T16:10:59.718Z,18.17
2019-01-06T16:13:46.766Z,18.60
2019-01-06T16:16:36.822Z,19.47
2019-01-06T16:19:23.966Z,16.93
2019-01-06T16:22:10.757Z,17.87
2019-01-06T16:24:57.878Z,18.20
2019-01-06T16:27:44.669Z,18.33
2019-01-06T16:30:31.442Z,19.50
2019-01-06T16:33:18.239Z,19.83
2019-01-06T16:36:05.015Z,20.10
2019-01-06T16:38:52.129Z,18.07
2019-01-06T16:41:38.986Z,19.00
2019-01-06T16:44:25.753Z,19.37
2019-01-06T16:47:12.535Z,20.07
2019-01-06T16:49:59.301Z,22.27
2019-01-06T16:52:46.397Z,21.30
2019-01-06T16:55:33.402Z,22.33
2019-01-06T16:58:20.435Z,20.40
2019-01-06T17:01:07.222Z,19.57
2019-01-06T17:03:53.994Z,19.00
2019-01-06T17:06:41.006Z,20.03
2019-01-06T17:09:27.777Z,20.77
2019-01-06T17:12:14.545Z,20.40
2019-01-06T17:15:01.571Z,22.07
2019-01-06T17:17:48.513Z,21.80
2019-01-06T17:20:35.827Z,21.70
2019-01-06T17:23:22.605Z,20.50
2019-01-06T17:26:09.665Z,22.10
2019-01-06T17:28:56.883Z,24.07
2019-01-06T17:31:43.879Z,26.00
2019-01-06T17:34:24.553Z,23.50
2019-01-06T17:37:11.318Z,21.10
2019-01-06T17:39:58.740Z,20.77
2019-01-06T17:42:46.181Z,21.27
2019-01-06T17:45:32.977Z,21.83
2019-01-06T17:48:20.047Z,23.60
2019-01-06T17:51:07.280Z,20.47
2019-01-06T17:53:54.617Z,18.77
2019-01-06T17:56:41.927Z,17.20
2019-01-06T17:59:28.698Z,22.07
2019-01-06T18:02:15.467Z,27.13
2019-01-06T18:05:02.901Z,25.00
2019-01-06T18:07:49.986Z,21.00
2019-01-06T18:10:37.105Z,18.10
2019-01-06T18:13:24.207Z,18.20
2019-01-06T18:16:11.569Z,19.00
2019-01-06T18:18:58.561Z,19.47
2019-01-06T18:21:45.361Z,19.03
2019-01-06T18:24:32.117Z,18.70
2019-01-06T18:27:20.709Z,16.80
2019-01-06T18:30:08.052Z,18.40
2019-01-06T18:32:55.102Z,17.27
2019-01-06T18:35:42.110Z,17.63
2019-01-06T18:38:29.133Z,16.37
2019-01-06T18:41:16.236Z,15.37
2019-01-06T18:44:03.021Z,16.40
2019-01-06T18:46:46.243Z,17.63
2019-01-06T18:49:33.144Z,17.00
2019-01-06T18:52:20.202Z,17.60
2019-01-06T18:55:07.301Z,16.70
2019-01-06T18:57:54.431Z,17.03
2019-01-06T19:00:41.766Z,17.60
2019-01-06T19:03:28.554Z,16.97
2019-01-06T19:06:15.761Z,19.10
2019-01-06T19:08:55.306Z,17.87
2019-01-06T19:11:42.534Z,16.30
2019-01-06T19:14:29.323Z,17.07
2019-01-06T19:17:16.345Z,17.10
2019-01-06T19:20:03.867Z,19.40
2019-01-06T19:22:50.906Z,19.00
2019-01-06T19:25:37.963Z,17.53
2019-01-06T19:28:25.291Z,17.30
2019-01-06T19:31:12.077Z,16.43
2019-01-06T19:33:58.849Z,17.27
2019-01-06T19:36:46.712Z,19.10
2019-01-06T19:39:33.869Z,17.90
2019-01-06T19:42:20.926Z,21.60
2019-01-06T19:45:07.959Z,19.20
2019-01-06T19:47:55.057Z,20.60
2019-01-06T19:50:42.443Z,19.77
2019-01-06T19:53:29.459Z,19.10
2019-01-06T19:56:16.822Z,19.40
2019-01-06T19:59:03.605Z,19.00
2019-01-06T20:01:50.633Z,18.77
2019-01-06T20:04:38.043Z,19.00
2019-01-06T20:07:24.804Z,19.13
2019-01-06T20:10:11.570Z,19.13
2019-01-06T20:12:58.415Z,18.97
2019-01-06T20:15:45.537Z,18.97
2019-01-06T20:18:32.304Z,17.73
2019-01-06T20:21:20.662Z,19.13
2019-01-06T20:24:07.402Z,21.27
2019-01-06T20:26:54.547Z,19.30
2019-01-06T20:29:41.642Z,18.33
2019-01-06T20:32:29.114Z,18.20
2019-01-06T20:35:15.887Z,19.30
2019-01-06T20:38:03.183Z,18.73
2019-01-06T20:40:51.401Z,19.10
2019-01-06T20:43:38.791Z,17.80
2019-01-06T20:46:26.086Z,18.10
2019-01-06T20:49:12.862Z,17.33
2019-01-06T20:51:59.649Z,17.60
2019-01-06T20:54:46.709Z,17.67
2019-01-06T20:57:34.011Z,18.60
2019-01-06T21:00:20.762Z,18.90
2019-01-06T21:03:07.539Z,19.40
2019-01-06T21:05:54.582Z,19.27
2019-01-06T21:08:41.351Z,18.80
2019-01-06T21:11:19.605Z,18.23
2019-01-06T21:14:06.606Z,18.23
2019-01-06T21:16:53.893Z,17.73
2019-01-06T21:19:41.197Z,17.80
2019-01-06T21:22:28.623Z,19.13
2019-01-06T21:25:10.562Z,18.47
2019-01-06T21:27:57.590Z,17.40
2019-01-06T21:30:44.374Z,17.27
2019-01-06T21:33:31.137Z,16.90
2019-01-06T21:36:17.929Z,17.67
2019-01-06T21:39:04.701Z,18.37
2019-01-06T21:41:51.755Z,17.90
2019-01-06T21:44:38.818Z,17.63
2019-01-06T21:47:25.586Z,16.40
2019-01-06T21:50:12.385Z,17.20
2019-01-06T21:52:59.657Z,18.10
2019-01-06T21:55:46.434Z,17.13
2019-01-06T21:58:33.279Z,18.30
2019-01-06T22:01:20.302Z,18.03
2019-01-06T22:04:07.065Z,17.53
2019-01-06T22:06:53.860Z,18.30
2019-01-06T22:09:40.621Z,16.70
2019-01-06T22:12:27.706Z,18.40
2019-01-06T22:15:14.494Z,17.50
2019-01-06T22:18:01.267Z,18.47
2019-01-06T22:20:48.545Z,18.40
2019-01-06T22:23:35.952Z,16.93
2019-01-06T22:26:22.718Z,18.67
2019-01-06T22:29:10.087Z,17.87
2019-01-06T22:31:57.230Z,18.20
2019-01-06T22:34:40.657Z,17.97
2019-01-06T22:37:27.512Z,19.90
2019-01-06T22:40:14.593Z,19.10
2019-01-06T22:43:01.714Z,19.33
2019-01-06T22:45:48.469Z,18.87
2019-01-06T22:48:35.267Z,18.10
2019-01-06T22:51:22.583Z,17.80
2019-01-06T22:54:09.667Z,18.30
2019-01-06T22:56:56.442Z,17.80
2019-01-06T22:59:43.324Z,19.07
2019-01-06T23:02:30.106Z,19.60
2019-01-06T23:05:17.242Z,19.27
2019-01-06T23:08:04.254Z,19.40
2019-01-06T23:10:51.043Z,19.60
2019-01-06T23:13:38.174Z,19.80
2019-01-06T23:16:25.291Z,19.70
2019-01-06T23:19:12.338Z,19.50
2019-01-06T23:21:59.351Z,19.33
2019-01-06T23:24:46.377Z,19.30
2019-01-06T23:27:33.737Z,20.17
2019-01-06T23:30:20.865Z,19.93
2019-01-06T23:33:07.706Z,20.93
2019-01-06T23:35:54.491Z,20.00
2019-01-06T23:38:41.490Z,20.63
2019-01-06T23:41:28.555Z,20.37
2019-01-06T23:44:15.942Z,19.60
2019-01-06T23:47:03.061Z,20.50
2019-01-06T23:49:49.838Z,21.80
2019-01-06T23:52:36.867Z,19.87
2019-01-06T23:55:23.885Z,19.33
2019-01-06T23:58:11.182Z,20.50
